createdAt,value
2018-04-17T00:01:33.692Z,60.60
2018-04-17T00:04:01.253Z,57.90
2018-04-17T00:06:28.829Z,63.72
2018-04-17T00:08:57.135Z,56.55
2018-04-17T00:11:24.734Z,65.37
2018-04-17T00:13:52.304Z,56.00
2018-04-17T00:16:20.659Z,61.60
2018-04-17T00:18:48.239Z,58.20
2018-04-17T00:21:15.806Z,55.88
2018-04-17T00:23:43.353Z,51.20
2018-04-17T00:26:10.904Z,46.92
2018-04-17T00:28:38.450Z,51.58
2018-04-17T00:31:06.789Z,56.47
2018-04-17T00:33:34.360Z,49.90
2018-04-17T00:36:01.911Z,59.25
2018-04-17T00:38:29.482Z,52.83
2018-04-17T00:40:57.031Z,52.65
2018-04-17T00:43:24.570Z,47.50
2018-04-17T00:45:52.111Z,53.65
2018-04-17T00:48:20.508Z,48.25
2018-04-17T00:50:48.089Z,49.55
2018-04-17T00:53:27.531Z,59.65
2018-04-17T00:55:55.088Z,47.03
2018-04-17T00:58:22.670Z,52.67
2018-04-17T01:00:50.231Z,57.45
2018-04-17T01:03:17.803Z,58.92
2018-04-17T01:05:45.387Z,54.92
2018-04-17T01:08:12.940Z,51.35
2018-04-17T01:10:40.475Z,57.08
2018-04-17T01:13:08.011Z,50.97
2018-04-17T01:15:36.351Z,55.42
2018-04-17T01:18:03.952Z,50.70
2018-04-17T01:20:32.462Z,62.20
2018-04-17T01:23:00.039Z,52.97
2018-04-17T01:25:27.613Z,74.47
2018-04-17T01:27:55.164Z,71.50
2018-04-17T01:30:22.796Z,65.60
2018-04-17T01:32:51.111Z,77.65
2018-04-17T01:35:18.661Z,81.85
2018-04-17T01:37:46.217Z,82.72
2018-04-17T01:40:13.771Z,67.20
2018-04-17T01:42:42.087Z,76.25
2018-04-17T01:45:09.662Z,91.68
2018-04-17T01:47:37.212Z,98.95
2018-04-17T01:50:04.777Z,89.15
2018-04-17T01:52:32.322Z,81.47
2018-04-17T01:54:59.895Z,88.90
2018-04-17T01:57:27.476Z,108.47
2018-04-17T01:59:55.051Z,91.80
2018-04-17T02:02:22.600Z,90.78
2018-04-17T02:04:50.187Z,109.78
2018-04-17T02:07:17.815Z,106.55
2018-04-17T02:09:45.400Z,114.15
2018-04-17T02:12:12.954Z,101.32
2018-04-17T02:14:40.532Z,111.57
2018-04-17T02:17:08.088Z,87.97
2018-04-17T02:19:35.633Z,104.05
2018-04-17T02:22:03.248Z,109.68
2018-04-17T02:24:30.799Z,94.20
2018-04-17T02:26:58.361Z,96.12
2018-04-17T02:29:25.908Z,81.75
2018-04-17T02:31:53.460Z,91.55
2018-04-17T02:34:21.012Z,108.25
2018-04-17T02:36:48.589Z,102.95
2018-04-17T02:39:16.148Z,113.60
2018-04-17T02:41:43.699Z,105.57
2018-04-17T02:44:12.062Z,114.40
2018-04-17T02:46:39.638Z,98.93
2018-04-17T02:49:07.956Z,102.15
2018-04-17T02:51:35.507Z,122.53
2018-04-17T02:54:03.086Z,126.87
2018-04-17T02:56:30.650Z,131.93
2018-04-17T02:58:58.207Z,122.53
2018-04-17T03:01:25.756Z,123.30
2018-04-17T03:03:53.312Z,140.07
2018-04-17T03:06:21.635Z,158.87
2018-04-17T03:08:49.233Z,165.30
2018-04-17T03:11:16.796Z,139.75
2018-04-17T03:13:44.369Z,144.73
2018-04-17T03:16:11.937Z,152.52
2018-04-17T03:18:40.283Z,149.32
2018-04-17T03:21:07.925Z,150.57
2018-04-17T03:23:35.478Z,118.50
2018-04-17T03:26:03.038Z,141.52
2018-04-17T03:28:30.704Z,130.68
2018-04-17T03:30:58.250Z,155.52
2018-04-17T03:33:26.605Z,168.62
2018-04-17T03:35:54.154Z,170.87
2018-04-17T03:38:21.732Z,177.52
2018-04-17T03:40:49.286Z,150.00
2018-04-17T03:43:16.826Z,159.68
2018-04-17T03:45:44.390Z,137.48
2018-04-17T03:48:11.943Z,130.85
2018-04-17T03:50:39.487Z,138.20
2018-04-17T03:53:07.808Z,119.68
2018-04-17T03:55:35.379Z,163.40
2018-04-17T03:58:02.986Z,131.87
2018-04-17T04:00:31.319Z,137.05
2018-04-17T04:02:58.867Z,167.75
2018-04-17T04:05:26.427Z,147.37
2018-04-17T04:07:53.981Z,159.10
2018-04-17T04:10:21.546Z,170.45
2018-04-17T04:12:49.143Z,159.82
2018-04-17T04:15:16.696Z,181.70
2018-04-17T04:17:56.067Z,197.18
2018-04-17T04:20:35.434Z,223.18
2018-04-17T04:23:14.998Z,210.43
2018-04-17T04:28:58.447Z,200.40
2018-04-17T04:31:26.044Z,217.98
2018-04-17T04:33:53.616Z,205.23
2018-04-17T04:36:21.962Z,202.05
2018-04-17T04:38:49.523Z,217.32
2018-04-17T04:41:17.070Z,218.05
2018-04-17T04:43:44.641Z,195.73
2018-04-17T04:46:12.188Z,207.87
2018-04-17T04:48:39.769Z,226.18
2018-04-17T04:51:07.329Z,217.75
2018-04-17T04:53:34.875Z,208.75
2018-04-17T04:56:02.437Z,203.82
2018-04-17T04:58:29.982Z,215.62
2018-04-17T05:00:58.287Z,205.95
2018-04-17T05:03:25.851Z,205.23
2018-04-17T05:05:53.436Z,182.23
2018-04-17T05:08:21.017Z,194.73
2018-04-17T05:10:48.620Z,197.62
2018-04-17T05:13:16.960Z,190.20
2018-04-17T05:15:44.530Z,180.73
2018-04-17T05:18:12.111Z,178.98
2018-04-17T05:20:39.671Z,193.68
2018-04-17T05:23:07.227Z,170.30
2018-04-17T05:25:34.798Z,178.20
2018-04-17T05:28:02.346Z,160.50
2018-04-17T05:30:29.886Z,155.73
2018-04-17T05:32:57.466Z,145.50
2018-04-17T05:35:25.049Z,147.15
2018-04-17T05:37:52.593Z,150.35
2018-04-17T05:40:20.135Z,135.40
2018-04-17T05:42:47.695Z,142.18
2018-04-17T05:45:15.276Z,157.27
2018-04-17T05:47:42.864Z,146.18
2018-04-17T05:50:10.490Z,127.87
2018-04-17T05:52:38.779Z,143.98
2018-04-17T05:55:06.349Z,134.77
2018-04-17T05:57:33.909Z,137.05
2018-04-17T06:00:01.505Z,117.70
2018-04-17T06:02:29.054Z,126.55
2018-04-17T06:04:56.607Z,121.40
2018-04-17T06:07:24.147Z,116.30
2018-04-17T06:09:51.728Z,115.75
2018-04-17T06:12:19.292Z,120.40
2018-04-17T06:14:46.880Z,121.22
2018-04-17T06:17:14.422Z,116.40
2018-04-17T06:19:41.970Z,125.47
2018-04-17T06:22:09.549Z,117.37
2018-04-17T06:24:37.098Z,122.65
2018-04-17T06:27:04.651Z,127.30
2018-04-17T06:29:32.969Z,118.95
2018-04-17T06:32:00.530Z,119.07
2018-04-17T06:34:28.074Z,110.03
2018-04-17T06:36:55.629Z,103.00
2018-04-17T06:39:23.971Z,105.40
2018-04-17T06:41:51.575Z,118.10
2018-04-17T06:44:19.890Z,106.50
2018-04-17T06:46:47.453Z,108.55
2018-04-17T06:49:15.003Z,99.80
2018-04-17T06:51:42.632Z,105.18
2018-04-17T06:54:10.952Z,87.97
2018-04-17T06:56:38.518Z,94.53
2018-04-17T06:59:06.096Z,96.50
2018-04-17T07:01:34.439Z,100.07
2018-04-17T07:04:02.780Z,86.60
2018-04-17T07:06:30.331Z,85.12
2018-04-17T07:08:57.899Z,89.15
2018-04-17T07:11:25.445Z,88.28
2018-04-17T07:13:53.003Z,89.90
2018-04-17T07:16:20.560Z,89.70
2018-04-17T07:18:48.127Z,84.00
2018-04-17T07:21:15.684Z,93.07
2018-04-17T07:23:43.298Z,90.30
2018-04-17T07:26:10.814Z,86.03
2018-04-17T07:28:38.402Z,93.78
2018-04-17T07:31:05.947Z,78.18
2018-04-17T07:33:33.523Z,79.65
2018-04-17T07:36:01.072Z,73.80
2018-04-17T07:38:28.606Z,77.82
2018-04-17T07:40:56.940Z,79.72
2018-04-17T07:43:24.506Z,85.10
2018-04-17T07:45:52.055Z,75.18
2018-04-17T07:48:31.511Z,70.95
2018-04-17T07:50:59.095Z,81.87
2018-04-17T07:53:26.675Z,81.30
2018-04-17T07:55:55.010Z,73.62
2018-04-17T07:58:22.583Z,71.70
2018-04-17T08:00:50.151Z,71.22
2018-04-17T08:03:17.711Z,70.87
2018-04-17T08:05:45.274Z,73.87
2018-04-17T08:08:12.856Z,71.03
2018-04-17T08:10:40.447Z,71.80
2018-04-17T08:13:08.774Z,76.12
2018-04-17T08:15:36.313Z,72.90
2018-04-17T08:18:03.865Z,72.82
2018-04-17T08:20:32.179Z,72.97
2018-04-17T08:22:59.748Z,69.50
2018-04-17T08:25:27.313Z,70.20
2018-04-17T08:27:55.062Z,63.80
2018-04-17T08:30:22.643Z,67.28
2018-04-17T08:32:50.195Z,61.15
2018-04-17T08:35:17.756Z,64.35
2018-04-17T08:37:45.308Z,61.17
2018-04-17T08:40:13.648Z,56.83
2018-04-17T08:42:41.273Z,61.08
2018-04-17T08:45:09.557Z,61.75
2018-04-17T08:47:37.126Z,63.60
2018-04-17T08:50:04.670Z,64.50
2018-04-17T08:52:32.230Z,64.55
2018-04-17T08:54:59.769Z,65.78
2018-04-17T08:57:27.319Z,69.47
2018-04-17T08:59:54.909Z,72.55
2018-04-17T09:02:23.220Z,63.60
2018-04-17T09:04:50.791Z,67.72
2018-04-17T09:07:18.367Z,62.03
2018-04-17T09:09:45.943Z,66.22
2018-04-17T09:12:13.513Z,61.20
2018-04-17T09:14:41.102Z,57.10
2018-04-17T09:17:08.732Z,59.97
2018-04-17T09:19:36.251Z,61.10
2018-04-17T09:22:04.589Z,53.38
2018-04-17T09:24:32.157Z,57.45
2018-04-17T09:27:00.471Z,58.78
2018-04-17T09:29:28.807Z,55.28
2018-04-17T09:31:56.392Z,57.35
2018-04-17T09:34:23.992Z,59.05
2018-04-17T09:36:52.327Z,66.15
2018-04-17T09:39:19.939Z,56.22
2018-04-17T09:41:47.514Z,56.35
2018-04-17T09:44:15.058Z,59.08
2018-04-17T09:46:43.411Z,62.67
2018-04-17T09:49:10.966Z,72.18
2018-04-17T09:51:38.583Z,52.38
2018-04-17T09:54:06.135Z,54.10
2018-04-17T09:56:34.451Z,60.28
2018-04-17T09:59:02.004Z,58.90
2018-04-17T10:01:29.575Z,61.20
2018-04-17T10:03:57.151Z,61.13
2018-04-17T10:06:24.749Z,64.22
2018-04-17T10:08:52.319Z,59.50
2018-04-17T10:11:20.653Z,58.22
2018-04-17T10:13:48.226Z,53.80
2018-04-17T10:16:15.779Z,57.40
2018-04-17T10:18:43.328Z,57.83
2018-04-17T10:21:10.908Z,63.78
2018-04-17T10:23:38.547Z,68.32
2018-04-17T10:26:06.864Z,56.00
2018-04-17T10:28:34.435Z,58.50
2018-04-17T10:31:01.981Z,53.83
2018-04-17T10:33:29.557Z,55.33
2018-04-17T10:35:57.124Z,52.55
2018-04-17T10:38:24.676Z,52.53
2018-04-17T10:40:52.250Z,52.03
2018-04-17T10:43:19.827Z,57.90
2018-04-17T10:45:47.423Z,56.45
2018-04-17T10:48:14.979Z,50.38
2018-04-17T10:50:42.541Z,50.47
2018-04-17T10:53:10.082Z,53.40
2018-04-17T10:55:37.627Z,45.58
2018-04-17T10:58:05.260Z,46.03
2018-04-17T11:00:32.809Z,47.28
2018-04-17T11:03:01.162Z,48.87
2018-04-17T11:05:28.743Z,50.30
2018-04-17T11:07:56.299Z,50.15
2018-04-17T11:10:23.921Z,49.63
2018-04-17T11:12:51.450Z,47.03
2018-04-17T11:15:19.003Z,45.63
2018-04-17T11:17:46.561Z,46.03
2018-04-17T11:20:14.129Z,36.78
2018-04-17T11:22:41.684Z,41.13
2018-04-17T11:25:09.239Z,42.05
2018-04-17T11:27:36.777Z,49.55
2018-04-17T11:30:04.388Z,44.05
2018-04-17T11:32:31.958Z,46.47
2018-04-17T11:34:59.512Z,42.67
2018-04-17T11:37:27.083Z,43.10
2018-04-17T11:39:54.663Z,41.65
2018-04-17T11:42:23.024Z,40.70
2018-04-17T11:44:50.562Z,41.08
2018-04-17T11:47:18.097Z,41.42
2018-04-17T11:49:45.644Z,41.75
2018-04-17T11:52:13.974Z,41.60
2018-04-17T11:54:41.582Z,41.37
2018-04-17T11:57:09.919Z,35.80
2018-04-17T11:59:38.048Z,47.55
2018-04-17T12:02:06.371Z,34.72
2018-04-17T12:04:33.947Z,36.10
2018-04-17T12:07:01.519Z,35.67
2018-04-17T12:09:29.324Z,39.83
2018-04-17T12:11:57.679Z,35.90
2018-04-17T12:14:25.234Z,35.88
2018-04-17T12:16:52.809Z,37.13
2018-04-17T12:19:20.427Z,39.92
2018-04-17T12:21:48.019Z,39.08
2018-04-17T12:24:15.562Z,43.92
2018-04-17T12:26:43.134Z,36.47
2018-04-17T12:29:10.755Z,38.75
2018-04-17T12:31:39.094Z,34.75
2018-04-17T12:34:06.668Z,36.88
2018-04-17T12:36:34.240Z,40.15
2018-04-17T12:39:01.819Z,38.05
2018-04-17T12:41:29.440Z,40.40
2018-04-17T12:43:57.010Z,37.38
2018-04-17T12:46:24.611Z,41.58
2018-04-17T12:48:52.155Z,34.30
2018-04-17T12:51:19.727Z,37.47
2018-04-17T12:53:47.279Z,34.28
2018-04-17T12:56:14.855Z,36.50
2018-04-17T12:58:42.407Z,33.67
2018-04-17T13:01:09.961Z,35.28
2018-04-17T13:03:38.146Z,31.60
2018-04-17T13:06:05.709Z,31.80
2018-04-17T13:08:33.336Z,33.63
2018-04-17T13:11:00.893Z,28.50
2018-04-17T13:13:28.444Z,32.67
2018-04-17T13:15:56.778Z,27.15
2018-04-17T13:18:24.313Z,30.12
2018-04-17T13:20:51.860Z,33.13
2018-04-17T13:23:20.202Z,30.10
2018-04-17T13:25:47.819Z,34.00
2018-04-17T13:28:15.353Z,33.42
2018-04-17T13:30:42.898Z,26.83
2018-04-17T13:33:10.447Z,32.50
2018-04-17T13:35:38.022Z,28.27
2018-04-17T13:38:05.580Z,29.37
2018-04-17T13:40:33.143Z,30.33
2018-04-17T13:43:01.493Z,28.75
2018-04-17T13:45:29.029Z,28.77
2018-04-17T13:47:57.350Z,29.23
2018-04-17T13:50:24.917Z,26.08
2018-04-17T13:52:52.492Z,27.00
2018-04-17T13:55:20.046Z,29.50
2018-04-17T13:57:47.613Z,35.83
2018-04-17T14:00:15.172Z,35.70
2018-04-17T14:02:42.742Z,29.20
2018-04-17T14:05:10.308Z,25.37
2018-04-17T14:07:37.855Z,25.42
2018-04-17T14:10:05.418Z,22.55
2018-04-17T14:12:32.991Z,20.85
2018-04-17T14:15:00.562Z,27.70
2018-04-17T14:17:28.170Z,26.85
2018-04-17T14:19:55.691Z,22.67
2018-04-17T14:22:23.272Z,22.62
2018-04-17T14:24:50.800Z,22.65
2018-04-17T14:27:18.330Z,22.25
2018-04-17T14:29:45.865Z,26.30
2018-04-17T14:32:13.431Z,26.80
2018-04-17T14:34:40.993Z,30.50
2018-04-17T14:37:08.558Z,26.17
2018-04-17T14:39:36.126Z,24.25
2018-04-17T14:42:03.678Z,27.65
2018-04-17T14:44:31.221Z,32.38
2018-04-17T14:46:58.780Z,32.15
2018-04-17T14:49:26.334Z,31.77
2018-04-17T14:51:53.878Z,28.58
2018-04-17T14:54:22.226Z,31.95
2018-04-17T14:56:49.797Z,31.00
2018-04-17T14:59:17.358Z,27.65
2018-04-17T15:01:44.913Z,33.75
2018-04-17T15:04:12.464Z,25.08
2018-04-17T15:06:40.022Z,35.05
2018-04-17T15:09:07.587Z,22.77
2018-04-17T15:11:35.127Z,20.20
2018-04-17T15:14:02.676Z,21.58
2018-04-17T15:16:30.981Z,21.50
2018-04-17T15:18:58.541Z,25.65
2018-04-17T15:21:26.102Z,16.45
2018-04-17T15:23:53.646Z,20.42
2018-04-17T15:26:21.958Z,17.45
2018-04-17T15:28:49.521Z,15.70
2018-04-17T15:31:17.064Z,25.08
2018-04-17T15:33:45.394Z,20.48
2018-04-17T15:36:12.939Z,19.75
2018-04-17T15:38:41.369Z,21.17
2018-04-17T15:41:08.920Z,22.27
2018-04-17T15:43:36.462Z,20.67
2018-04-17T15:46:04.008Z,17.02
2018-04-17T15:48:31.569Z,22.05
2018-04-17T15:50:59.136Z,24.45
2018-04-17T15:53:26.690Z,19.95
2018-04-17T15:55:54.251Z,26.27
2018-04-17T15:58:21.802Z,17.12
2018-04-17T16:00:50.131Z,20.62
2018-04-17T16:03:17.689Z,19.77
2018-04-17T16:05:45.254Z,15.27
2018-04-17T16:08:12.840Z,24.00
2018-04-17T16:10:40.411Z,22.55
2018-04-17T16:13:07.990Z,15.30
2018-04-17T16:15:35.580Z,20.92
2018-04-17T16:18:03.959Z,24.42
2018-04-17T16:20:32.311Z,17.52
2018-04-17T16:22:59.849Z,20.02
2018-04-17T16:25:27.391Z,19.40
2018-04-17T16:27:54.978Z,20.50
2018-04-17T16:30:22.576Z,15.70
2018-04-17T16:32:50.131Z,19.05
2018-04-17T16:35:17.678Z,18.80
2018-04-17T16:37:45.244Z,20.50
2018-04-17T16:40:12.781Z,23.48
2018-04-17T16:42:40.354Z,19.00
2018-04-17T16:45:07.923Z,23.10
2018-04-17T16:47:35.523Z,18.73
2018-04-17T16:50:03.119Z,17.12
2018-04-17T16:52:30.699Z,16.30
2018-04-17T16:54:58.260Z,20.27
2018-04-17T16:57:25.834Z,17.55
2018-04-17T16:59:53.406Z,20.88
2018-04-17T17:02:20.987Z,23.35
2018-04-17T17:04:49.325Z,17.00
2018-04-17T17:07:16.875Z,18.95
2018-04-17T17:09:45.210Z,20.00
2018-04-17T17:12:12.783Z,25.40
2018-04-17T17:14:40.344Z,23.70
2018-04-17T17:17:07.938Z,18.73
2018-04-17T17:19:35.482Z,14.63
2018-04-17T17:22:03.016Z,18.75
2018-04-17T17:24:30.562Z,21.40
2018-04-17T17:26:58.158Z,17.08
2018-04-17T17:29:25.707Z,21.00
2018-04-17T17:31:53.245Z,20.50
2018-04-17T17:34:20.816Z,18.17
2018-04-17T17:36:48.373Z,19.98
2018-04-17T17:39:15.962Z,18.23
2018-04-17T17:41:43.567Z,18.87
2018-04-17T17:44:11.156Z,13.02
2018-04-17T17:46:39.487Z,14.00
2018-04-17T17:49:07.037Z,12.60
2018-04-17T17:51:34.638Z,16.30
2018-04-17T17:54:02.184Z,16.92
2018-04-17T17:56:29.773Z,17.77
2018-04-17T17:58:58.133Z,17.83
2018-04-17T18:01:25.685Z,17.35
2018-04-17T18:03:53.241Z,24.63
2018-04-17T18:06:20.835Z,22.23
2018-04-17T18:08:48.393Z,18.50
2018-04-17T18:11:15.943Z,23.05
2018-04-17T18:13:43.559Z,22.52
2018-04-17T18:16:11.865Z,25.60
2018-04-17T18:18:39.406Z,19.08
2018-04-17T18:21:07.791Z,22.08
2018-04-17T18:23:36.138Z,23.58
2018-04-17T18:26:03.707Z,22.87
2018-04-17T18:28:31.252Z,23.45
2018-04-17T18:30:58.850Z,24.15
2018-04-17T18:33:26.428Z,32.45
2018-04-17T18:35:54.739Z,32.60
2018-04-17T18:38:22.307Z,29.17
2018-04-17T18:40:49.871Z,40.28
2018-04-17T18:43:17.442Z,36.40
2018-04-17T18:45:45.041Z,34.55
2018-04-17T18:48:12.618Z,35.40
2018-04-17T18:50:40.179Z,32.30
2018-04-17T18:53:07.742Z,31.73
2018-04-17T18:55:35.300Z,36.50
2018-04-17T18:58:02.865Z,25.48
2018-04-17T19:00:30.431Z,29.70
2018-04-17T19:02:57.998Z,24.63
2018-04-17T19:05:25.571Z,26.50
2018-04-17T19:07:53.139Z,36.78
2018-04-17T19:10:20.685Z,32.22
2018-04-17T19:12:48.250Z,28.30
2018-04-17T19:15:15.818Z,28.98
2018-04-17T19:17:43.362Z,24.10
2018-04-17T19:20:10.916Z,24.23
2018-04-17T19:22:38.466Z,26.17
2018-04-17T19:25:05.997Z,23.48
2018-04-17T19:27:34.330Z,29.40
2018-04-17T19:30:01.876Z,29.90
2018-04-17T19:32:29.437Z,31.30
2018-04-17T19:34:57.009Z,27.33
2018-04-17T19:37:24.559Z,33.25
2018-04-17T19:39:52.093Z,25.52
2018-04-17T19:42:20.405Z,28.17
2018-04-17T19:44:47.979Z,29.40
2018-04-17T19:47:15.562Z,34.30
2018-04-17T19:49:43.116Z,31.02
2018-04-17T19:52:10.769Z,32.95
2018-04-17T19:54:38.305Z,36.97
2018-04-17T19:57:06.664Z,28.98
2018-04-17T19:59:34.163Z,25.37
2018-04-17T20:02:01.689Z,34.88
2018-04-17T20:04:29.233Z,48.13
2018-04-17T20:06:56.799Z,41.03
2018-04-17T20:09:24.406Z,48.80
2018-04-17T20:11:52.700Z,43.40
2018-04-17T20:14:20.234Z,39.65
2018-04-17T20:16:47.802Z,27.95
2018-04-17T20:19:16.104Z,28.12
2018-04-17T20:21:44.993Z,34.42
2018-04-17T20:24:13.878Z,26.95
2018-04-17T20:26:42.766Z,31.27
2018-04-17T20:29:11.654Z,30.88
2018-04-17T20:31:40.602Z,30.80
2018-04-17T20:34:09.480Z,32.95
2018-04-17T20:36:38.414Z,30.80
2018-04-17T20:39:07.325Z,27.23
2018-04-17T20:41:36.259Z,25.88
2018-04-17T20:44:05.194Z,24.45
2018-04-17T20:46:34.134Z,27.58
2018-04-17T20:49:03.099Z,25.65
2018-04-17T20:51:32.003Z,29.50
2018-04-17T20:54:00.925Z,23.83
2018-04-17T20:56:29.848Z,24.33
2018-04-17T20:58:58.783Z,27.37
2018-04-17T21:01:27.665Z,24.70
2018-04-17T21:03:56.554Z,24.08
2018-04-17T21:06:25.469Z,31.67
2018-04-17T21:08:54.399Z,27.95
2018-04-17T21:11:23.340Z,27.23
2018-04-17T21:13:52.263Z,29.27
2018-04-17T21:16:21.192Z,29.58
2018-04-17T21:18:50.099Z,29.70
2018-04-17T21:21:18.989Z,24.85
2018-04-17T21:23:47.927Z,21.10
2018-04-17T21:26:16.841Z,21.77
2018-04-17T21:28:45.762Z,28.67
2018-04-17T21:31:14.730Z,28.23
2018-04-17T21:33:43.622Z,36.63
2018-04-17T21:36:12.547Z,33.17
2018-04-17T21:38:41.484Z,23.90
2018-04-17T21:41:10.405Z,25.33
2018-04-17T21:43:39.296Z,26.45
2018-04-17T21:46:08.215Z,28.27
2018-04-17T21:48:37.106Z,26.75
2018-04-17T21:51:05.990Z,29.37
2018-04-17T21:53:34.906Z,31.45
2018-04-17T21:56:03.803Z,31.85
2018-04-17T21:58:32.732Z,28.62
2018-04-17T22:01:01.669Z,33.88
2018-04-17T22:03:30.562Z,36.72
2018-04-17T22:05:59.453Z,47.13
2018-04-17T22:08:28.339Z,32.95
2018-04-17T22:10:57.270Z,43.95
2018-04-17T22:13:26.203Z,39.08
2018-04-17T22:15:55.098Z,37.40
2018-04-17T22:18:23.995Z,36.13
2018-04-17T22:20:52.882Z,40.25
2018-04-17T22:23:21.810Z,34.55
2018-04-17T22:25:50.712Z,29.35
2018-04-17T22:28:19.646Z,29.42
2018-04-17T22:30:48.523Z,37.08
2018-04-17T22:33:17.505Z,31.02
2018-04-17T22:35:46.402Z,33.22
2018-04-17T22:38:15.330Z,50.97
2018-04-17T22:40:44.234Z,32.15
2018-04-17T22:43:13.150Z,35.67
2018-04-17T22:45:42.082Z,34.83
2018-04-17T22:48:11.014Z,30.55
2018-04-17T22:50:39.925Z,33.13
2018-04-17T22:53:08.853Z,37.45
2018-04-17T22:55:37.760Z,38.17
2018-04-17T22:58:06.686Z,32.30
2018-04-17T23:00:35.601Z,39.40
2018-04-17T23:03:04.493Z,34.75
2018-04-17T23:05:33.438Z,36.55
2018-04-17T23:08:02.354Z,50.80
2018-04-17T23:10:31.270Z,36.40
2018-04-17T23:13:00.160Z,44.70
2018-04-17T23:15:29.069Z,37.63
2018-04-17T23:17:57.963Z,48.28
2018-04-17T23:20:26.846Z,38.60
2018-04-17T23:22:55.724Z,40.38
2018-04-17T23:25:24.614Z,43.42
2018-04-17T23:27:53.502Z,37.88
2018-04-17T23:30:22.400Z,41.33
2018-04-17T23:32:51.317Z,39.38
2018-04-17T23:35:20.316Z,36.90
2018-04-17T23:37:49.213Z,42.85
2018-04-17T23:40:18.130Z,43.53
2018-04-17T23:42:47.009Z,37.80
2018-04-17T23:45:15.899Z,48.35
2018-04-17T23:47:44.776Z,49.00
2018-04-17T23:50:13.737Z,55.47
2018-04-17T23:52:42.675Z,46.85
2018-04-17T23:55:11.585Z,49.90
2018-04-17T23:57:40.472Z,44.88
